Latest Weather Observations for Burketown Airport

IDQ60801

Issued at 8:05 pm EST Monday 22 September 2014 (issued every 30 minutes, with the page automatically refreshed every 10 minutes)

About weather observations | Map of weather stations | Latest weather observations for QLD | Other Formats
Station Details ID: 029077 Name: BURKETOWN AIRPORT Lat: -17.75 Lon: 139.54 Height: 5.7 m
Data from the previous 72 hours. | See also: Recent months at Burketown Airport
Date/Time
EST
Temp
°C
App
Temp
°C
Dew
Point
Rel
Hum
%
Delta-T
°C
Wind Press
QNH
hPa
Press
MSL
hPa
Rain
since 9 am
mm
Dir
 
Spd
km/h
Gust
km/h
Spd
kts
Gust
kts
22/08:00pm 22.1 20.2 8.9 43 7.0 N 9 13 5 7 1012.5 - 0.0
22/07:30pm 23.4 20.9 6.7 34 8.6 N 9 11 5 6 1012.2 - 0.0
22/07:00pm 25.0 21.1 3.6 25 10.5 NNE 13 17 7 9 1011.8 - 0.0
22/06:30pm 27.7 22.3 1.2 18 12.7 N 19 24 10 13 1011.4 - 0.0
22/06:00pm 29.8 24.2 1.3 16 13.9 N 20 28 11 15 1011.2 1011.1 0.0
22/05:30pm 31.3 27.0 -1.5 12 15.4 N 11 17 6 9 1010.9 - 0.0
22/05:00pm 33.1 27.9 -2.6 10 16.7 SW 15 22 8 12 1010.8 - 0.0
22/04:30pm 33.4 28.8 -3.7 9 17.0 W 11 15 6 8 1010.8 - 0.0
22/04:00pm 33.1 29.1 -2.6 10 16.7 NNE 9 19 5 10 1011.1 - 0.0
22/03:30pm 33.5 28.9 -3.7 9 17.1 NNE 11 19 6 10 1011.3 - 0.0
22/03:00pm 32.4 27.8 -4.5 9 16.6 ENE 11 17 6 9 1011.7 1011.6 0.0
22/02:30pm 32.7 27.7 -4.3 9 16.7 NE 13 19 7 10 1012.2 - 0.0
22/02:00pm 32.8 28.2 -4.2 9 16.8 E 11 19 6 10 1012.6 - 0.0
22/01:30pm 32.5 28.0 -3.0 10 16.4 N 11 19 6 10 1013.1 - 0.0
22/01:00pm 30.8 26.2 -4.3 10 15.6 S 11 19 6 10 1013.7 - 0.0
22/12:30pm 31.3 25.0 -3.9 10 15.9 SSW 20 28 11 15 1014.2 - 0.0
22/12:00pm 30.8 25.8 -4.3 10 15.6 ESE 13 20 7 11 1014.8 1014.7 0.0
22/11:30am 29.9 24.2 -3.7 11 15.0 SSE 17 30 9 16 1015.5 - 0.0
22/11:00am 29.0 23.4 -3.2 12 14.4 SE 17 28 9 15 1015.9 - 0.0
22/10:30am 28.5 22.0 -2.6 13 14.0 SE 22 30 12 16 1016.5 - 0.0
22/10:00am 27.9 21.0 -3.0 13 13.8 SE 24 32 13 17 1016.8 - 0.0
22/09:30am 26.5 19.7 -2.2 15 12.8 SE 24 33 13 18 1017.2 - 0.0
22/09:00am 25.5 19.0 -2.1 16 12.2 SSE 22 35 12 19 1017.1 1017.0 0.0
22/08:30am 24.0 18.2 -1.8 18 11.4 S 19 26 10 14 1016.7 - 0.0
22/08:00am 21.6 17.6 0.2 24 9.6 S 11 15 6 8 1016.3 - 0.0
22/07:30am 18.6 14.8 1.6 32 7.7 SSW 11 13 6 7 1015.9 - 0.0
22/07:00am 14.2 11.8 7.0 62 3.5 SW 9 11 5 6 1015.4 - 0.0
22/06:30am 13.7 10.8 4.6 54 4.2 WSW 9 11 5 6 1015.2 - 0.0
22/06:00am 14.9 12.2 5.7 54 4.4 SSW 9 11 5 6 1014.8 1014.7 0.0
22/05:30am 14.5 13.1 3.3 47 5.1 CALM 0 0 0 0 1014.5 - 0.0
22/05:00am 16.0 13.3 3.8 44 5.6 SSW 7 11 4 6 1014.2 - 0.0
22/04:30am 16.2 12.3 3.6 43 5.8 SSW 13 19 7 10 1014.0 - 0.0
22/04:00am 17.8 14.2 2.9 37 6.9 SSE 11 13 6 7 1014.0 - 0.0
22/03:30am 16.4 13.6 5.1 47 5.4 S 9 11 5 6 1014.0 - 0.0
22/03:00am 17.8 14.5 4.4 41 6.3 SSW 11 13 6 7 1014.0 1013.9 0.0
22/02:30am 19.3 15.8 5.4 40 6.8 SSE 13 15 7 8 1014.0 - 0.0
22/02:00am 19.7 15.3 6.4 42 6.6 S 19 22 10 12 1014.2 - 0.0
22/01:30am 19.5 16.5 7.9 47 6.0 S 13 19 7 10 1014.3 - 0.0
22/01:00am 18.1 15.7 10.0 59 4.3 WSW 13 15 7 8 1014.3 - 0.0
22/12:30am 18.8 17.7 10.6 59 4.4 WSW 7 9 4 5 1014.7 - 0.0
22/12:00am 20.1 18.2 11.8 59 4.6 SSW 13 17 7 9 1015.3 1015.2 0.0
 
Date/Time
EST
Temp
°C
App
Temp
°C
Dew
Point
Rel
Hum
%
Delta-T
°C
Wind Press
QNH
hPa
Press
MSL
hPa
Rain
since 9 am
mm
Dir
 
Spd
km/h
Gust
km/h
Spd
kts
Gust
kts
21/11:30pm 18.2 15.7 11.0 63 3.9 W 15 17 8 9 1014.7 - 0.0
21/11:00pm 18.7 16.6 11.0 61 4.2 WNW 13 15 7 8 1014.6 - 0.0
21/10:30pm 19.5 18.1 11.0 58 4.6 NW 9 11 5 6 1014.5 - 0.0
21/10:00pm 20.3 18.7 11.5 57 4.9 NNW 11 13 6 7 1014.4 - 0.0
21/09:30pm 21.1 19.4 11.2 53 5.5 N 11 11 6 6 1014.4 - 0.0
21/09:00pm 21.9 19.4 11.0 50 6.0 NNW 15 17 8 9 1014.2 1014.1 0.0
21/08:30pm 22.0 20.0 10.2 47 6.4 N 11 15 6 8 1014.0 - 0.0
21/08:00pm 23.0 21.0 8.7 40 7.6 N 9 13 5 7 1013.7 - 0.0
21/07:30pm 24.6 21.0 6.8 32 9.3 N 15 17 8 9 1013.5 - 0.0
21/07:00pm 25.9 22.1 6.0 28 10.3 N 15 17 8 9 1013.2 - 0.0
21/06:30pm 28.2 24.1 4.5 22 12.1 NNE 15 20 8 11 1013.1 - 0.0
21/06:00pm 30.9 26.6 3.0 17 14.1 NNE 15 20 8 11 1012.7 1012.6 0.0
21/05:30pm 32.9 29.4 -1.4 11 16.3 SE 7 13 4 7 1012.4 - 0.0
21/05:00pm 33.0 28.7 -1.4 11 16.4 ESE 11 20 6 11 1012.3 - 0.0
21/04:30pm 33.6 29.6 -2.2 10 16.9 WSW 9 15 5 8 1012.3 - 0.0
21/04:00pm 33.4 28.6 -2.3 10 16.8 SSE 13 20 7 11 1012.3 - 0.0
21/03:30pm 33.6 29.2 -2.2 10 16.9 SW 11 20 6 11 1012.5 - 0.0
21/03:00pm 32.2 27.5 -2.0 11 16.0 S 13 20 7 11 1012.8 1012.7 0.0
21/02:30pm 32.8 28.1 -1.5 11 16.3 SE 13 26 7 14 1013.2 - 0.0
21/02:00pm 32.2 27.1 -2.0 11 16.0 S 15 24 8 13 1013.8 - 0.0
21/01:30pm 32.3 27.2 -1.9 11 16.1 SE 15 26 8 14 1014.5 - 0.0
21/01:00pm 31.3 26.3 -1.5 12 15.4 SSE 15 20 8 11 1015.0 - 0.0
21/12:30pm 30.1 24.0 -2.4 12 14.9 ESE 20 28 11 15 1015.5 - 0.0
21/12:00pm 30.1 25.1 -1.3 13 14.6 SE 15 24 8 13 1016.1 1016.0 0.0
21/11:30am 29.4 23.0 -1.9 13 14.4 SE 22 33 12 18 1016.9 - 0.0
21/11:00am 29.2 22.8 -2.0 13 14.3 SE 22 30 12 16 1017.3 - 0.0
21/10:30am 28.1 21.8 -0.9 15 13.4 SE 22 28 12 15 1017.6 - 0.0
21/10:00am 27.3 20.5 -1.6 15 13.1 SE 24 35 13 19 1017.9 - 0.0
21/09:30am 26.7 19.2 -1.2 16 12.7 SE 28 35 15 19 1018.1 - 0.0
21/09:00am 25.5 17.4 -0.5 18 11.9 SE 32 43 17 23 1018.0 1017.9 0.0
21/08:30am 25.7 17.6 -0.4 18 12.0 SSE 32 41 17 22 1017.6 - 0.0
21/08:00am 23.8 15.9 -1.2 19 11.1 SSE 30 39 16 21 1016.9 - 0.0
21/07:30am 23.5 15.1 -0.7 20 10.9 SSE 33 46 18 25 1016.1 - 0.0
21/07:00am 23.1 14.9 -1.1 20 10.7 S 32 43 17 23 1015.5 - 0.0
21/06:30am 23.2 15.5 -0.3 21 10.6 S 30 43 16 23 1015.0 - 0.0
21/06:00am 23.6 16.7 2.4 25 10.1 S 28 41 15 22 1014.5 1014.4 0.0
21/05:30am 23.5 18.2 6.7 34 8.7 S 24 30 13 16 1013.9 - 0.0
21/05:00am 22.4 20.8 16.0 67 3.9 S 19 24 10 13 1013.5 - 0.0
21/04:30am 22.4 22.0 18.0 76 2.7 S 17 19 9 10 1013.0 - 0.0
21/04:00am 22.7 22.7 18.9 79 2.4 S 17 20 9 11 1013.1 - 0.0
21/03:30am 22.4 21.7 20.3 88 1.4 S 24 39 13 21 1013.3 - 0.0
21/03:11am 21.1 19.9 20.9 99 0.1 S 28 41 15 22 1013.0 - 0.0
21/03:00am 20.1 21.7 19.9 99 0.1 WSW 11 11 6 6 1012.1 1012.0 0.0
21/02:30am 20.3 22.4 20.1 99 0.1 W 9 9 5 5 1012.3 - 0.0
21/02:00am 20.0 21.6 19.2 95 0.5 W 9 11 5 6 1012.6 - 0.0
21/01:30am 20.4 21.7 19.4 94 0.6 NW 11 13 6 7 1012.8 - 0.0
21/01:00am 21.0 23.0 20.0 94 0.6 NW 9 11 5 6 1012.8 - 0.0
21/12:30am 21.4 22.8 20.4 94 0.6 NW 13 15 7 8 1013.0 - 0.0
21/12:00am 21.0 22.4 19.5 91 1.0 NW 11 13 6 7 1013.2 1013.1 0.0
 
Date/Time
EST
Temp
°C
App
Temp
°C
Dew
Point
Rel
Hum
%
Delta-T
°C
Wind Press
QNH
hPa
Press
MSL
hPa
Rain
since 9 am
mm
Dir
 
Spd
km/h
Gust
km/h
Spd
kts
Gust
kts
20/11:30pm 21.6 22.9 20.2 92 0.9 NNW 13 15 7 8 1013.4 - 0.0
20/11:00pm 21.3 22.6 19.2 88 1.3 NW 11 13 6 7 1013.5 - 0.0
20/10:30pm 22.0 23.4 20.3 90 1.1 N 13 15 7 8 1013.3 - 0.0
20/10:00pm 21.7 23.1 19.6 88 1.3 NNW 11 13 6 7 1013.6 - 0.0
20/09:30pm 21.8 23.9 19.4 86 1.5 N 7 9 4 5 1013.6 - 0.0
20/09:00pm 22.3 24.2 19.7 85 1.7 N 9 11 5 6 1013.5 1013.4 0.0
20/08:30pm 22.8 24.6 19.6 82 2.0 N 9 11 5 6 1013.5 - 0.0
20/08:00pm 23.5 24.9 19.6 79 2.5 N 11 11 6 6 1013.1 - 0.0
20/07:30pm 24.5 26.0 19.8 75 3.0 N 11 15 6 8 1012.7 - 0.0
20/07:00pm 25.5 26.0 19.2 68 4.0 N 15 17 8 9 1012.4 - 0.0
20/06:30pm 26.8 26.6 18.6 60 5.2 N 17 26 9 14 1012.3 - 0.0
20/06:00pm 28.1 27.4 17.3 52 6.8 N 17 22 9 12 1012.2 1012.1 0.0
20/05:30pm 28.7 27.6 17.2 49 7.2 N 19 24 10 13 1012.0 - 0.0
20/05:00pm 30.2 27.7 15.1 40 9.3 NNE 22 28 12 15 1011.8 - 0.0
20/04:30pm 30.6 27.8 14.2 36 9.9 NNE 22 32 12 17 1011.8 - 0.0
20/04:00pm 31.4 29.2 15.0 37 10.1 NE 20 32 11 17 1011.8 - 0.0
20/03:30pm 32.0 29.9 15.1 36 10.4 NNE 20 28 11 15 1011.9 - 0.0
20/03:00pm 32.0 29.6 15.5 37 10.2 NNE 22 32 12 17 1012.2 1012.1 0.0
20/02:30pm 32.2 29.0 14.3 33 10.9 NNE 24 37 13 20 1012.5 - 0.0
20/02:00pm 32.1 29.2 15.1 35 10.5 NNE 24 35 13 19 1013.1 - 0.0
20/01:30pm 32.8 29.5 12.9 29 11.9 NNE 22 33 12 18 1013.5 - 0.0
20/01:00pm 33.2 28.9 7.9 21 14.0 NE 20 35 11 19 1013.9 - 0.0
20/12:30pm 33.5 29.1 6.7 19 14.6 ENE 19 26 10 14 1014.5 - 0.0
20/12:00pm 33.3 27.3 3.2 15 15.5 ENE 24 33 13 18 1015.0 1014.9 0.0
20/11:30am 33.5 27.2 -1.0 11 16.6 E 22 33 12 18 1015.3 - 0.0
20/11:00am 33.1 26.0 -1.3 11 16.4 ENE 26 35 14 19 1015.5 - 0.0
20/10:30am 33.6 27.0 -3.6 9 17.1 ENE 22 30 12 16 1015.6 - 0.0
20/10:00am 31.8 25.6 -3.5 10 16.1 E 20 28 11 15 1015.8 - 0.0
20/09:30am 30.7 24.1 -3.1 11 15.4 ESE 22 30 12 16 1016.2 - 0.0
20/09:00am 28.6 21.5 -1.5 14 13.8 SE 26 35 14 19 1016.2 1016.1 0.0
20/08:30am 26.1 19.3 -1.7 16 12.5 SE 24 33 13 18 1016.1 - 0.0
20/08:00am 24.1 18.2 -0.9 19 11.2 SSE 20 26 11 14 1016.1 - 0.0
20/07:30am 21.0 16.1 -0.3 24 9.4 SE 15 19 8 10 1015.7 - 0.0
20/07:00am 19.2 14.6 -0.7 26 8.6 SSE 13 13 7 7 1015.3 - 0.0
20/06:30am 18.8 14.3 -0.6 27 8.4 SSE 13 17 7 9 1014.9 - 0.0
20/06:00am 19.9 14.9 -1.2 24 9.1 SSE 15 19 8 10 1014.7 1014.6 0.0
20/05:30am 20.4 15.1 -0.8 24 9.2 SSE 17 20 9 11 1013.9 - 0.0
20/05:00am 20.5 15.6 -0.7 24 9.3 SSE 15 20 8 11 1013.8 - 0.0
20/04:30am 20.4 15.5 -0.8 24 9.2 SE 15 19 8 10 1013.7 - 0.0
20/04:00am 20.9 15.9 -1.0 23 9.6 SSE 15 19 8 10 1013.5 - 0.0
20/03:30am 20.8 15.9 -0.5 24 9.4 SSE 15 17 8 9 1013.6 - 0.0
20/03:00am 20.7 16.2 0.0 25 9.2 SSE 13 17 7 9 1013.7 1013.6 0.0
20/02:30am 19.9 15.4 -0.1 26 8.8 SSE 13 15 7 8 1013.9 - 0.0
20/02:00am 20.1 15.6 0.0 26 8.9 SSE 13 13 7 7 1014.0 - 0.0
20/01:30am 21.1 16.6 -0.2 24 9.5 SSE 13 17 7 9 1014.2 - 0.0
20/01:00am 21.5 17.0 -0.5 23 9.7 SSE 13 15 7 8 1014.5 - 0.0
20/12:30am 21.7 17.6 -0.3 23 9.8 SSE 11 13 6 7 1014.7 - 0.0
20/12:00am 23.0 18.4 -1.1 20 10.7 S 13 15 7 8 1014.7 1014.6 0.0
 
Date/Time
EST
Temp
°C
App
Temp
°C
Dew
Point
Rel
Hum
%
Delta-T
°C
Wind Press
QNH
hPa
Press
MSL
hPa
Rain
since 9 am
mm
Dir
 
Spd
km/h
Gust
km/h
Spd
kts
Gust
kts
19/11:30pm 23.8 19.6 -1.2 19 11.1 SSE 11 13 6 7 1014.8 - 0.0
19/11:00pm 22.5 19.0 3.6 29 9.1 SSW 11 15 6 8 1014.8 - 0.0
19/10:30pm 21.0 17.7 6.5 39 7.3 W 13 15 7 8 1014.9 - 0.0
19/10:00pm 22.2 18.8 3.8 30 8.9 W 11 13 6 7 1015.0 - 0.0
19/09:30pm 22.1 18.6 3.7 30 8.9 WSW 11 13 6 7 1014.8 - 0.0
19/09:00pm 22.6 19.1 3.7 29 9.1 W 11 13 6 7 1014.6 1014.5 0.0
19/08:30pm 22.7 19.0 2.2 26 9.7 WNW 11 13 6 7 1014.2 - 0.0

Other Formats:

Comma delimited format used in spreadsheet applications
http://www.bom.gov.au/fwo/IDQ60801/IDQ60801.94260.axf

JavaScript Object Notation format (JSON) in row-major order
http://www.bom.gov.au/fwo/IDQ60801/IDQ60801.94260.json